Time;durP1;ratioP1;P1;durP2;ratioP2;P2;SDS_P1;SDS_P2;PMS_P1;PMS_P2;Temp;Humidity;BMP_temperature;BMP_pressure;BME280_temperature;BME280_humidity;BME280_pressure;Samples;Min_cycle;Max_cycle;Signal;HPM_P1;HPM_P2
2022/11/10 00:02:37;;;;;;;11.77;2.30;;;;;;;8.51;88.08;101582.38;5049557;28;20071;-70
2022/11/10 00:05:23;;;;;;;12.82;2.53;;;;;;;8.47;88.02;101583.28;5035798;28;20037;-71
2022/11/10 00:08:11;;;;;;;11.88;2.33;;;;;;;8.44;88.38;101591.19;5050022;28;20049;-71
2022/11/10 00:10:57;;;;;;;12.60;2.60;;;;;;;8.47;88.21;101595.53;5044778;28;20140;-71
2022/11/10 00:17:00;;;;;;;18.80;2.50;;;;;;;8.46;88.61;101605.16;5039610;28;20061;-70
2022/11/10 00:19:46;;;;;;;9.23;2.83;;;;;;;8.46;88.70;101612.19;5038179;28;20097;-70
2022/11/10 00:22:38;;;;;;;12.13;2.65;;;;;;;8.47;88.71;101614.81;5032240;28;20042;-71
2022/11/10 00:25:26;;;;;;;8.23;2.47;;;;;;;8.44;88.96;101620.09;5043826;28;20537;-71
2022/11/10 00:28:12;;;;;;;9.35;2.70;;;;;;;8.42;88.83;101616.59;5055617;28;20133;-71
2022/11/10 00:31:05;;;;;;;15.95;2.72;;;;;;;8.42;88.71;101615.69;5045933;28;20419;-71
2022/11/10 00:33:50;;;;;;;16.70;2.72;;;;;;;8.41;89.07;101622.72;5037919;28;20073;-70
2022/11/10 00:36:36;;;;;;;13.40;2.83;;;;;;;8.41;89.27;101622.72;5050692;28;20046;-72
2022/11/10 00:39:22;;;;;;;14.77;2.60;;;;;;;8.38;89.31;101621.00;5040059;28;20116;-72
2022/11/10 00:42:08;;;;;;;14.20;3.00;;;;;;;8.38;89.45;101626.25;5045952;28;20622;-72
2022/11/10 00:44:54;;;;;;;11.20;2.88;;;;;;;8.37;89.47;101621.00;5038183;28;20042;-72
2022/11/10 00:47:39;;;;;;;16.27;3.03;;;;;;;8.38;89.67;101622.75;5037776;28;20045;-71
2022/11/10 00:50:25;;;;;;;12.88;2.80;;;;;;;8.37;89.65;101621.00;5049092;28;20042;-71
2022/11/10 00:53:11;;;;;;;11.48;2.78;;;;;;;8.36;89.78;101621.88;5048590;28;20048;-71
2022/11/10 00:55:56;;;;;;;14.95;3.05;;;;;;;8.34;89.80;101621.03;5047388;28;20506;-71
2022/11/10 00:58:42;;;;;;;13.05;3.13;;;;;;;8.34;90.04;101628.94;5048770;28;20391;-71
2022/11/10 01:01:28;;;;;;;10.02;2.83;;;;;;;8.34;90.08;101631.56;5041841;28;20049;-71
2022/11/10 01:04:14;;;;;;;11.65;3.45;;;;;;;8.33;90.22;101641.19;5050008;28;20124;-70
2022/11/10 01:07:00;;;;;;;9.32;2.72;;;;;;;8.32;90.16;101644.69;5047624;28;20079;-71
2022/11/10 01:09:45;;;;;;;13.43;3.10;;;;;;;8.31;90.25;101636.81;5032867;28;20065;-72
2022/11/10 01:12:31;;;;;;;12.07;3.10;;;;;;;8.29;90.22;101635.97;5051947;28;20042;-69
2022/11/10 01:15:19;;;;;;;11.93;3.10;;;;;;;8.28;90.06;101644.72;5041834;28;20048;-72
2022/11/10 01:18:12;;;;;;;16.50;3.78;;;;;;;8.26;90.10;101654.38;5050822;28;20120;-72
2022/11/10 01:20:59;;;;;;;19.73;3.70;;;;;;;8.24;90.27;101657.00;5048137;28;20143;-69
2022/11/10 01:23:45;;;;;;;13.35;3.60;;;;;;;8.23;90.35;101660.53;5037971;28;20067;-70
2022/11/10 01:26:30;;;;;;;11.63;3.40;;;;;;;8.21;90.36;101672.78;5033863;28;20046;-72
2022/11/10 01:29:16;;;;;;;10.18;3.28;;;;;;;8.18;90.43;101671.06;5037532;28;20132;-70
2022/11/10 01:32:02;;;;;;;15.07;3.92;;;;;;;8.18;90.52;101681.56;5051283;28;20115;-72
2022/11/10 01:34:47;;;;;;;14.93;3.92;;;;;;;8.19;90.63;101679.84;5041401;28;20176;-72
2022/11/10 01:37:33;;;;;;;10.65;3.80;;;;;;;8.16;90.60;101678.06;5050429;28;20800;-72
2022/11/10 01:40:20;;;;;;;12.02;3.92;;;;;;;8.14;90.57;101684.22;5040658;28;20116;-72
2022/11/10 01:43:10;;;;;;;11.05;3.70;;;;;;;8.12;90.64;101689.50;5049004;28;20069;-72
2022/11/10 01:46:02;;;;;;;14.40;3.92;;;;;;;8.11;90.70;101679.88;5052698;28;20960;-72
2022/11/10 01:49:01;;;;;;;12.13;3.50;;;;;;;8.12;90.78;101686.00;5037278;28;20211;-72
2022/11/10 01:52:03;;;;;;;16.95;4.00;;;;;;;8.11;90.83;101686.88;5054981;28;20128;-72
2022/11/10 01:54:49;;;;;;;12.50;3.88;;;;;;;8.08;90.85;101687.75;5044820;28;20116;-70
2022/11/10 01:57:37;;;;;;;12.05;3.88;;;;;;;8.07;90.96;101686.91;5048339;28;20101;-72
2022/11/10 02:00:23;;;;;;;16.05;3.95;;;;;;;8.06;90.81;101689.53;5050473;28;20052;-71
2022/11/10 02:03:20;;;;;;;14.68;4.03;;;;;;;8.06;91.06;101697.41;5046454;28;20038;-72
2022/11/10 02:06:08;;;;;;;16.52;3.80;;;;;;;8.03;91.16;101693.06;5054754;28;20048;-72
2022/11/10 02:08:57;;;;;;;11.00;3.70;;;;;;;8.02;91.10;101687.81;5049874;28;20041;-72
2022/11/10 02:11:43;;;;;;;13.15;3.78;;;;;;;8.02;91.33;101686.03;5046384;28;20065;-72
2022/11/10 02:14:29;;;;;;;16.30;4.00;;;;;;;8.02;91.30;101680.81;5060618;28;20041;-72
2022/11/10 02:17:15;;;;;;;13.57;4.00;;;;;;;8.02;91.46;101687.81;5044742;28;20427;-72
2022/11/10 02:20:12;;;;;;;17.60;3.83;;;;;;;8.01;91.47;101679.06;5041028;28;20530;-72
2022/11/10 02:22:57;;;;;;;20.20;3.92;;;;;;;8.02;91.67;101683.41;5051209;28;20084;-72
2022/11/10 02:25:46;;;;;;;13.20;3.75;;;;;;;8.04;91.57;101686.03;5048608;28;20038;-72
2022/11/10 02:28:35;;;;;;;18.58;3.85;;;;;;;8.07;91.86;101699.16;5050401;28;20042;-71
2022/11/10 02:31:21;;;;;;;15.80;3.60;;;;;;;8.08;91.88;101700.91;5044437;28;20864;-71
2022/11/10 02:34:07;;;;;;;14.88;3.42;;;;;;;8.11;92.05;101718.38;5038639;28;20527;-71
2022/11/10 02:36:53;;;;;;;13.68;3.17;;;;;;;8.14;92.16;101719.22;5049740;28;20515;-71
2022/11/10 02:39:38;;;;;;;10.70;3.17;;;;;;;8.17;92.03;101723.63;5049423;28;20049;-71
2022/11/10 02:42:24;;;;;;;16.92;3.90;;;;;;;8.19;92.05;101724.50;5037541;28;20072;-71
2022/11/10 02:45:10;;;;;;;10.48;3.20;;;;;;;8.22;92.22;101721.81;5045393;28;20053;-71
2022/11/10 02:47:55;;;;;;;11.35;3.08;;;;;;;8.25;92.25;101724.44;5043361;28;20042;-71
2022/11/10 02:50:42;;;;;;;7.82;2.85;;;;;;;8.29;92.24;101722.66;5043064;28;20056;-71
2022/11/10 02:53:28;;;;;;;11.30;3.47;;;;;;;8.32;92.41;101723.50;5039594;28;20049;-71
2022/11/10 02:56:13;;;;;;;12.52;3.40;;;;;;;8.36;92.15;101719.97;5035768;28;20140;-71
2022/11/10 02:59:00;;;;;;;11.27;3.60;;;;;;;8.39;92.17;101724.34;5044084;28;20053;-71
2022/11/10 03:01:46;;;;;;;19.08;4.00;;;;;;;8.39;92.10;101734.84;5041367;28;20136;-71
2022/11/10 03:04:31;;;;;;;16.15;3.55;;;;;;;8.39;91.93;101721.72;5036508;28;20049;-71
2022/11/10 03:07:17;;;;;;;13.30;3.30;;;;;;;8.37;91.95;101727.00;5050651;28;20056;-71
2022/11/10 03:10:05;;;;;;;16.80;3.40;;;;;;;8.34;91.88;101742.75;5048060;28;20040;-71
2022/11/10 03:13:00;;;;;;;21.88;3.42;;;;;;;8.33;91.77;101741.03;5046224;28;20072;-71
2022/11/10 03:15:47;;;;;;;11.88;3.03;;;;;;;8.30;91.94;101753.31;5030960;28;20049;-72
2022/11/10 03:18:33;;;;;;;18.75;3.60;;;;;;;8.31;92.24;101747.16;5049136;28;20126;-72
2022/11/10 03:21:18;;;;;;;12.77;3.60;;;;;;;8.27;92.01;101743.69;5048560;28;20045;-71
2022/11/10 03:24:04;;;;;;;15.93;3.47;;;;;;;8.25;92.17;101742.81;5031442;28;20046;-71
2022/11/10 03:26:50;;;;;;;15.15;3.20;;;;;;;8.22;92.27;101750.72;5045056;28;20072;-73
2022/11/10 03:29:36;;;;;;;11.65;3.60;;;;;;;8.20;92.15;101761.25;5039187;28;20041;-73
2022/11/10 03:32:22;;;;;;;13.18;3.45;;;;;;;8.18;92.44;101762.16;5049961;28;20051;-73
2022/11/10 03:35:08;;;;;;;18.17;3.30;;;;;;;8.16;92.28;101774.41;5062198;28;20052;-73
2022/11/10 03:37:54;;;;;;;12.52;3.25;;;;;;;8.14;92.27;101784.03;5041645;28;20057;-73
2022/11/10 03:40:40;;;;;;;15.40;3.13;;;;;;;8.13;92.58;101792.78;5046549;28;20041;-71
2022/11/10 03:43:49;;;;;;;13.98;3.53;;;;;;;8.11;92.54;101792.81;5051871;28;20053;-73
2022/11/10 03:46:35;;;;;;;13.35;3.15;;;;;;;8.11;92.67;101792.81;5033836;28;20092;-74
2022/11/10 03:49:21;;;;;;;15.52;3.30;;;;;;;8.08;92.76;101783.22;5053729;28;20055;-74
2022/11/10 03:52:06;;;;;;;13.85;3.00;;;;;;;8.05;92.60;101792.81;5046007;28;20404;-74
2022/11/10 03:54:52;;;;;;;13.50;2.97;;;;;;;8.04;92.70;101794.59;5051365;28;20069;-72
2022/11/10 03:57:41;;;;;;;13.10;3.05;;;;;;;8.02;92.83;101800.75;5034685;28;20049;-72
2022/11/10 04:00:28;;;;;;;16.77;4.10;;;;;;;7.99;92.74;101796.34;5045173;28;20041;-72
2022/11/10 04:03:17;;;;;;;14.63;2.42;;;;;;;8.00;92.92;101818.25;5043767;28;20050;-72
2022/11/10 04:09:08;;;;;;;12.47;3.13;;;;;;;7.97;92.86;101823.50;5046237;28;20049;-72
2022/11/10 04:18:20;;;;;;;12.98;3.38;;;;;;;7.93;93.10;101835.78;5047242;28;20507;-74
2022/11/10 04:21:06;;;;;;;16.02;3.15;;;;;;;7.89;93.06;101839.28;5051024;28;20041;-74
2022/11/10 04:23:51;;;;;;;11.25;3.30;;;;;;;7.89;92.94;101848.03;5050403;28;20052;-73
2022/11/10 04:26:42;;;;;;;14.48;3.45;;;;;;;7.88;92.97;101845.44;5051730;28;20050;-74
2022/11/10 04:29:28;;;;;;;17.77;3.40;;;;;;;7.86;92.96;101850.66;5049395;28;20450;-74
2022/11/10 04:32:14;;;;;;;15.80;3.25;;;;;;;7.86;93.08;101868.19;5044567;28;20500;-74
2022/11/10 04:34:59;;;;;;;16.77;3.00;;;;;;;7.85;93.34;101876.94;5044205;28;20133;-74
2022/11/10 04:37:46;;;;;;;18.00;3.10;;;;;;;7.84;93.33;101886.53;5041558;28;20045;-74
2022/11/10 04:40:31;;;;;;;14.20;3.45;;;;;;;7.85;93.33;101893.56;5050781;28;20053;-71
2022/11/10 04:43:18;;;;;;;13.13;3.35;;;;;;;7.85;93.51;101903.19;5049882;28;20096;-72
2022/11/10 04:46:07;;;;;;;10.80;3.13;;;;;;;7.83;93.42;101904.94;5041979;28;20168;-72
2022/11/10 04:48:55;;;;;;;9.85;2.78;;;;;;;7.84;93.48;101912.81;5042428;28;20046;-72
2022/11/10 04:51:40;;;;;;;12.52;2.80;;;;;;;7.82;93.63;101905.81;5043831;28;20141;-71
2022/11/10 04:54:26;;;;;;;17.33;3.90;;;;;;;7.79;93.50;101898.81;5049515;28;20052;-70
2022/11/10 04:57:12;;;;;;;18.27;3.22;;;;;;;7.78;93.39;101904.94;5041608;28;20077;-70
2022/11/10 04:59:58;;;;;;;14.02;3.53;;;;;;;7.77;93.53;101905.81;5052988;28;20446;-71
2022/11/10 05:02:43;;;;;;;13.43;3.35;;;;;;;7.77;93.50;101905.81;5043480;28;20045;-71
2022/11/10 05:05:31;;;;;;;14.15;3.25;;;;;;;7.77;93.71;101914.59;5043794;28;20046;-70
2022/11/10 05:08:17;;;;;;;15.30;3.50;;;;;;;7.76;93.83;101912.84;5042909;28;20063;-70
2022/11/10 05:11:04;;;;;;;15.93;3.80;;;;;;;7.77;93.83;101924.19;5045143;28;20089;-71
2022/11/10 05:13:50;;;;;;;13.70;3.60;;;;;;;7.79;93.87;101917.19;5041732;28;20042;-71
2022/11/10 05:16:36;;;;;;;16.00;3.38;;;;;;;7.81;93.80;101917.19;5031303;28;20051;-71
2022/11/10 05:19:22;;;;;;;14.60;3.53;;;;;;;7.83;93.68;101915.44;5047637;28;20049;-71
2022/11/10 05:22:08;;;;;;;15.70;2.83;;;;;;;7.83;93.66;101918.97;5050955;28;20050;-71
2022/11/10 05:24:54;;;;;;;15.40;3.25;;;;;;;7.84;93.57;101915.44;5071089;28;20048;-71
2022/11/10 05:27:40;;;;;;;18.77;3.33;;;;;;;7.81;93.61;101910.19;5037543;28;20159;-71
2022/11/10 05:30:25;;;;;;;16.00;3.38;;;;;;;7.80;93.77;101916.31;5038757;28;20130;-71
2022/11/10 05:33:11;;;;;;;19.00;3.65;;;;;;;7.78;93.73;101916.31;5047437;28;20123;-71
2022/11/10 05:35:57;;;;;;;17.95;3.78;;;;;;;7.80;93.90;101923.31;5047238;28;20598;-72
2022/11/10 05:38:43;;;;;;;17.73;3.40;;;;;;;7.78;93.97;101923.31;5050829;28;20116;-71
2022/11/10 05:41:28;;;;;;;16.60;3.60;;;;;;;7.77;93.98;101913.69;5038472;28;20038;-71
2022/11/10 05:44:14;;;;;;;15.18;4.25;;;;;;;7.73;93.97;101925.94;5045608;28;20042;-71
2022/11/10 05:47:00;;;;;;;13.07;3.53;;;;;;;7.72;94.12;101923.34;5047821;28;20127;-71
2022/11/10 05:49:46;;;;;;;15.52;3.70;;;;;;;7.71;94.31;101924.22;5048821;28;20041;-71
2022/11/10 05:52:32;;;;;;;14.30;3.50;;;;;;;7.70;94.37;101923.31;5047424;28;20049;-69
2022/11/10 05:55:22;;;;;;;15.50;3.50;;;;;;;7.72;94.35;101928.59;5047741;28;20049;-71
2022/11/10 05:58:08;;;;;;;23.05;4.05;;;;;;;7.78;94.79;101934.69;5045339;28;20048;-71
2022/11/10 06:00:54;;;;;;;21.55;3.90;;;;;;;7.84;94.91;101925.94;5044571;28;20064;-71
2022/11/10 06:03:40;;;;;;;20.15;3.60;;;;;;;7.96;95.04;101945.16;5043149;28;20037;-71
2022/11/10 06:06:26;;;;;;;10.57;3.10;;;;;;;8.10;95.62;101959.16;5045625;28;20140;-71
2022/11/10 06:09:11;;;;;;;16.17;3.20;;;;;;;8.21;95.64;101953.88;5048713;28;20099;-71
2022/11/10 06:11:57;;;;;;;18.20;3.83;;;;;;;8.30;95.10;101966.97;5048704;28;21011;-71
2022/11/10 06:14:43;;;;;;;18.42;2.95;;;;;;;8.35;95.11;101965.22;5051476;28;20068;-71
2022/11/10 06:17:29;;;;;;;19.27;3.33;;;;;;;8.40;94.71;101970.47;5046773;28;20132;-71
2022/11/10 06:20:16;;;;;;;18.20;2.80;;;;;;;8.42;94.70;101971.34;5046240;28;20203;-71
2022/11/10 06:23:12;;;;;;;19.20;3.38;;;;;;;8.46;94.66;101980.09;5043128;28;20057;-71
2022/11/10 06:25:58;;;;;;;12.60;3.85;;;;;;;8.34;93.83;101971.34;5045675;28;20119;-71
2022/11/10 06:28:44;;;;;;;21.40;3.38;;;;;;;8.25;93.54;101981.88;5047048;28;20111;-71
2022/11/10 06:31:30;;;;;;;18.80;3.67;;;;;;;8.15;93.42;101983.66;5046049;28;20045;-72
2022/11/10 06:34:15;;;;;;;11.45;3.22;;;;;;;8.08;93.71;101985.44;5045796;28;20042;-71
2022/11/10 06:37:02;;;;;;;12.73;3.20;;;;;;;8.02;93.58;101995.94;5045756;28;20184;-71
2022/11/10 06:39:48;;;;;;;17.45;3.53;;;;;;;8.00;93.84;102002.94;5046374;28;20049;-71
2022/11/10 06:42:34;;;;;;;13.55;2.97;;;;;;;7.98;93.82;101996.84;5043901;28;20041;-71
2022/11/10 06:45:21;;;;;;;12.85;3.05;;;;;;;7.94;93.90;102002.94;5047506;28;20053;-71
2022/11/10 06:48:12;;;;;;;16.15;3.35;;;;;;;7.92;93.84;102007.31;5043575;28;20056;-71
2022/11/10 06:51:01;;;;;;;16.45;3.15;;;;;;;7.93;94.07;102016.94;5047117;28;20069;-71
2022/11/10 06:53:46;;;;;;;14.50;2.92;;;;;;;7.95;94.35;102035.31;5048614;28;20115;-71
2022/11/10 06:56:32;;;;;;;17.17;3.15;;;;;;;7.95;94.39;102024.81;5049342;28;20042;-71
2022/11/10 06:59:18;;;;;;;16.75;3.65;;;;;;;7.96;94.29;102047.59;5048256;28;20045;-71
2022/11/10 07:02:03;;;;;;;28.08;3.53;;;;;;;7.97;94.23;102047.59;5048584;28;20104;-71
2022/11/10 07:04:52;;;;;;;15.25;3.65;;;;;;;8.00;94.33;102055.44;5050457;28;20052;-71
2022/11/10 07:07:38;;;;;;;17.90;3.30;;;;;;;8.02;94.43;102053.72;5067449;28;20048;-71
2022/11/10 07:10:24;;;;;;;18.45;3.20;;;;;;;8.03;94.34;102063.34;5049987;28;20053;-72
2022/11/10 07:13:11;;;;;;;16.67;3.22;;;;;;;8.07;94.35;102064.22;5050083;28;20041;-71
2022/11/10 07:15:57;;;;;;;16.75;3.15;;;;;;;8.09;94.29;102060.69;5054002;28;20045;-71
2022/11/10 07:18:43;;;;;;;18.83;3.33;;;;;;;8.13;94.36;102072.13;5053431;28;20046;-71
2022/11/10 07:21:29;;;;;;;17.40;3.28;;;;;;;8.17;94.27;102071.22;5053510;28;20048;-71
2022/11/10 07:24:14;;;;;;;20.90;3.80;;;;;;;8.21;94.15;102074.72;5043047;28;20103;-71
2022/11/10 07:27:00;;;;;;;17.60;3.10;;;;;;;8.27;94.22;102079.97;5052267;28;20123;-71
2022/11/10 07:29:46;;;;;;;16.50;3.30;;;;;;;8.31;94.35;102088.72;5052522;28;20033;-71
2022/11/10 07:32:32;;;;;;;17.83;3.10;;;;;;;8.36;94.09;102095.72;5063436;28;20047;-71
2022/11/10 07:35:18;;;;;;;16.50;3.40;;;;;;;8.42;94.03;102107.09;5056527;28;20598;-71
2022/11/10 07:38:11;;;;;;;19.70;3.10;;;;;;;8.45;94.20;102112.38;5053171;28;20049;-71
2022/11/10 07:40:57;;;;;;;16.17;3.42;;;;;;;8.50;94.00;102114.16;5051281;28;20463;-71
2022/11/10 07:43:42;;;;;;;16.48;3.35;;;;;;;8.58;93.85;102115.88;5066580;28;20056;-71
2022/11/10 07:46:28;;;;;;;17.05;2.95;;;;;;;8.63;93.68;102115.00;5063567;28;20045;-71
2022/11/10 07:49:17;;;;;;;14.93;3.65;;;;;;;8.70;93.63;102115.84;5063769;28;20171;-71
2022/11/10 07:52:03;;;;;;;17.02;3.20;;;;;;;8.74;93.66;102104.47;5061959;28;20041;-71
2022/11/10 07:54:48;;;;;;;14.98;3.20;;;;;;;8.80;93.26;102106.22;5033245;28;20050;-71
2022/11/10 07:57:34;;;;;;;16.42;3.40;;;;;;;8.85;93.33;102109.69;5054018;28;20219;-71
2022/11/10 08:00:20;;;;;;;16.55;3.17;;;;;;;8.92;93.13;102115.81;5061880;28;20072;-71
2022/11/10 08:03:13;;;;;;;16.52;3.17;;;;;;;8.98;93.06;102128.94;5052981;28;20045;-71
2022/11/10 08:05:59;;;;;;;17.13;3.22;;;;;;;9.04;92.87;102121.03;5051675;28;20479;-71
2022/11/10 08:08:46;;;;;;;14.98;3.28;;;;;;;9.10;92.74;102128.91;5053176;28;20145;-71
2022/11/10 08:11:32;;;;;;;14.93;3.03;;;;;;;9.19;92.60;102138.53;5052949;28;20069;-71
2022/11/10 08:14:18;;;;;;;16.30;3.10;;;;;;;9.26;92.34;102142.88;5050440;28;20048;-71
2022/11/10 08:17:03;;;;;;;12.55;2.78;;;;;;;9.32;92.16;102144.59;5033349;28;20529;-70
2022/11/10 08:19:50;;;;;;;19.40;3.10;;;;;;;9.39;91.93;102151.59;5032872;28;20101;-71
2022/11/10 08:22:36;;;;;;;14.45;3.17;;;;;;;9.46;91.75;102144.53;5032124;28;20046;-71
2022/11/10 08:25:21;;;;;;;12.63;2.70;;;;;;;9.54;91.66;102163.78;5032069;28;20116;-71
2022/11/10 08:28:15;;;;;;;16.20;2.95;;;;;;;9.60;91.28;102158.53;5032887;28;20539;-71
2022/11/10 08:31:02;;;;;;;19.23;3.08;;;;;;;9.68;91.19;102155.81;5032538;28;20042;-71
2022/11/10 08:33:51;;;;;;;13.55;2.60;;;;;;;9.74;90.93;102160.19;5032673;28;20042;-71
2022/11/10 08:36:37;;;;;;;20.63;2.90;;;;;;;9.81;90.74;102167.19;5046829;28;20049;-71
2022/11/10 08:39:23;;;;;;;15.77;3.38;;;;;;;9.87;90.44;102156.59;5032627;28;20050;-71
2022/11/10 08:42:23;;;;;;;13.88;2.80;;;;;;;9.94;90.57;102168.84;5032373;28;20090;-71
2022/11/10 08:45:09;;;;;;;12.57;2.58;;;;;;;10.03;90.27;102159.13;5045584;28;20590;-71
2022/11/10 08:48:04;;;;;;;13.38;2.65;;;;;;;10.09;90.04;102161.72;5051759;28;20057;-71
2022/11/10 08:50:50;;;;;;;20.65;2.92;;;;;;;10.16;89.90;102159.94;5052229;28;20045;-71
2022/11/10 08:53:36;;;;;;;14.35;3.60;;;;;;;10.26;89.35;102169.50;5052007;28;20044;-71
2022/11/10 08:56:21;;;;;;;14.82;2.95;;;;;;;10.33;89.56;102183.50;5052114;28;20052;-71
2022/11/10 08:59:07;;;;;;;15.30;2.75;;;;;;;10.40;89.17;102169.44;5051019;28;20072;-71
2022/11/10 09:01:53;;;;;;;16.40;2.78;;;;;;;10.48;89.04;102178.16;5051520;28;20049;-71
2022/11/10 09:04:38;;;;;;;16.83;2.78;;;;;;;10.56;88.59;102186.84;5049697;28;20045;-71
2022/11/10 09:07:24;;;;;;;17.20;2.78;;;;;;;10.64;88.48;102181.53;5052091;28;20095;-71
2022/11/10 09:10:12;;;;;;;22.85;3.08;;;;;;;10.74;88.41;102190.22;5051406;28;20079;-71
2022/11/10 09:13:00;;;;;;;26.17;3.80;;;;;;;10.84;88.22;102185.72;5050820;28;20050;-71
2022/11/10 09:15:45;;;;;;;18.50;2.97;;;;;;;10.94;87.98;102190.03;5052019;28;20053;-71
2022/11/10 09:18:32;;;;;;;18.65;3.03;;;;;;;11.02;87.89;102195.22;5051374;28;20112;-71
2022/11/10 09:21:18;;;;;;;14.98;2.80;;;;;;;11.11;87.17;102197.78;5051540;28;20907;-71
2022/11/10 09:24:05;;;;;;;12.32;2.65;;;;;;;11.15;87.27;102211.81;5051482;28;20049;-71
2022/11/10 09:26:50;;;;;;;16.15;2.38;;;;;;;11.24;87.02;102216.13;5051811;28;20107;-70
2022/11/10 09:29:36;;;;;;;21.95;2.95;;;;;;;11.30;86.38;102214.25;5049842;28;20041;-71
2022/11/10 09:32:22;;;;;;;21.58;3.15;;;;;;;11.37;86.27;102216.84;5051574;28;20045;-71
2022/11/10 09:35:07;;;;;;;19.42;2.55;;;;;;;11.43;85.86;102219.41;5050933;28;20047;-71
2022/11/10 09:37:53;;;;;;;13.80;2.55;;;;;;;11.46;86.11;102220.22;5050061;28;20136;-71
2022/11/10 09:40:54;;;;;;;18.13;2.90;;;;;;;11.56;86.13;102222.75;5051368;28;20056;-71
2022/11/10 09:44:11;;;;;;;9.80;2.47;;;;;;;11.65;85.72;102222.63;5046409;28;20044;-70
2022/11/10 09:47:03;;;;;;;15.35;2.90;;;;;;;11.70;85.08;102228.75;5032303;28;20069;-71
2022/11/10 09:49:57;;;;;;;17.50;3.15;;;;;;;11.78;85.17;102231.31;5047819;28;20467;-71
2022/11/10 09:52:46;;;;;;;21.55;2.78;;;;;;;11.84;84.87;102233.84;5052304;28;20111;-70
2022/11/10 09:55:45;;;;;;;20.70;3.35;;;;;;;11.92;84.59;102237.25;5052228;28;20041;-70
2022/11/10 09:58:38;;;;;;;16.35;2.58;;;;;;;11.94;84.51;102227.53;5050643;28;20523;-72
2022/11/10 10:01:42;;;;;;;19.90;2.90;;;;;;;12.02;84.26;102234.53;5051399;28;20136;-71
2022/11/10 10:05:14;;;;;;;18.38;2.80;;;;;;;12.11;83.50;102234.38;5051663;28;20111;-70
2022/11/10 10:08:18;;;;;;;16.80;2.75;;;;;;;12.17;83.81;102236.06;5051887;28;20057;-71
2022/11/10 10:11:23;;;;;;;15.32;2.45;;;;;;;12.22;83.72;102228.97;5050543;28;20058;-70
2022/11/10 10:14:57;;;;;;;19.15;2.80;;;;;;;12.32;83.04;102220.00;5050281;28;20128;-71
2022/11/10 10:17:58;;;;;;;45.95;4.80;;;;;;;12.38;82.70;102225.16;5050397;28;20061;-71
2022/11/10 10:21:09;;;;;;;14.88;2.60;;;;;;;12.47;82.68;102237.38;5050771;28;20060;-71
2022/11/10 10:23:58;;;;;;;17.73;2.72;;;;;;;12.56;82.49;102246.94;5051529;28;20135;-71
2022/11/10 10:27:02;;;;;;;25.20;3.10;;;;;;;12.61;82.56;102245.09;5050891;28;20045;-70
2022/11/10 10:29:48;;;;;;;13.02;2.50;;;;;;;12.69;82.25;102247.63;5048503;28;20121;-70
2022/11/10 10:32:34;;;;;;;20.52;2.92;;;;;;;12.74;82.43;102244.00;5031414;28;20054;-72
2022/11/10 10:35:24;;;;;;;11.95;2.60;;;;;;;12.84;82.05;102262.34;5031152;28;20495;-72
2022/11/10 10:38:23;;;;;;;17.65;2.90;;;;;;;12.94;81.41;102257.75;5049891;28;20123;-71
2022/11/10 10:41:21;;;;;;;19.85;2.70;;;;;;;13.01;81.08;102270.88;5050548;28;20108;-70
2022/11/10 10:44:16;;;;;;;11.48;2.22;;;;;;;13.05;81.10;102276.97;5049598;28;20152;-72
2022/11/10 10:47:03;;;;;;;15.60;2.70;;;;;;;13.12;80.93;102280.41;5050965;28;20154;-71
2022/11/10 10:49:48;;;;;;;15.38;2.25;;;;;;;13.22;80.74;102283.75;5053858;28;20052;-71
2022/11/10 10:52:34;;;;;;;15.73;2.38;;;;;;;13.31;80.23;102287.09;5054360;28;20503;-70
2022/11/10 10:55:20;;;;;;;15.30;2.05;;;;;;;13.39;79.60;102287.00;5054709;28;20050;-71
2022/11/10 10:58:34;;;;;;;11.57;2.35;;;;;;;13.46;79.58;102291.25;5054279;28;20041;-70
2022/11/10 11:01:30;;;;;;;12.23;1.80;;;;;;;13.55;79.41;102292.88;5054206;28;20104;-70
2022/11/10 11:04:34;;;;;;;21.30;3.45;;;;;;;13.65;79.05;102290.88;5053243;28;20049;-70
2022/11/10 11:07:23;;;;;;;15.23;2.22;;;;;;;13.74;78.56;102295.13;5042518;28;20069;-70
2022/11/10 11:10:32;;;;;;;17.25;2.30;;;;;;;13.80;78.17;102290.59;5053715;28;20049;-71
2022/11/10 11:13:26;;;;;;;10.48;1.90;;;;;;;13.90;77.54;102282.44;5057121;28;20179;-71
2022/11/10 11:16:12;;;;;;;9.38;2.00;;;;;;;13.94;77.74;102290.31;5073934;28;20450;-72
2022/11/10 11:18:58;;;;;;;12.75;2.53;;;;;;;14.04;77.63;102279.50;5057384;28;20123;-71
2022/11/10 11:22:06;;;;;;;14.43;2.75;;;;;;;14.11;76.65;102286.41;5054036;28;20072;-71
2022/11/10 11:25:15;;;;;;;15.13;1.88;;;;;;;14.19;76.68;102287.13;5070444;28;20517;-71
2022/11/10 11:28:21;;;;;;;11.57;1.90;;;;;;;14.29;76.26;102287.78;5033986;28;20112;-71
2022/11/10 11:31:13;;;;;;;12.65;1.90;;;;;;;14.38;75.99;102281.38;5033526;28;20549;-70
2022/11/10 11:34:28;;;;;;;9.60;1.90;;;;;;;14.48;75.27;102282.91;5058168;28;20056;-71
2022/11/10 11:37:54;;;;;;;23.10;3.03;;;;;;;14.62;74.89;102302.91;5059506;28;20871;-70
2022/11/10 11:41:00;;;;;;;9.35;1.80;;;;;;;14.72;74.42;102300.06;5056620;28;20522;-71
2022/11/10 11:43:59;;;;;;;;;;;;;;;14.79;74.38;102305.19;5054902;28;20038;-70
2022/11/10 11:47:02;;;;;;;12.65;1.92;;;;;;;14.88;73.52;102302.31;5033615;28;19933;-71
2022/11/10 11:50:25;;;;;;;6.32;1.38;;;;;;;14.98;72.95;102298.50;5039504;28;20063;-71
2022/11/10 11:53:50;;;;;;;14.05;1.90;;;;;;;15.06;72.27;102315.13;5071165;28;20675;-71
2022/11/10 11:56:42;;;;;;;10.05;1.83;;;;;;;15.18;71.28;102329.88;5047306;28;20097;-70
2022/11/10 12:00:03;;;;;;;9.50;1.88;;;;;;;15.25;71.31;102327.94;5052358;28;20045;-70
2022/11/10 12:03:39;;;;;;;8.90;1.63;;;;;;;15.30;71.71;102334.00;5062224;28;20052;-70
2022/11/10 12:06:45;;;;;;;12.75;1.73;;;;;;;15.38;69.99;102329.34;5036410;28;20057;-70
2022/11/10 12:09:47;;;;;;;20.88;2.22;;;;;;;15.43;70.39;102342.50;5050519;28;20077;-72
2022/11/10 12:13:05;;;;;;;14.23;2.33;;;;;;;15.48;69.77;102329.09;5053089;28;20037;-72
2022/11/10 12:16:05;;;;;;;10.48;2.25;;;;;;;15.53;69.28;102345.78;5053180;28;20164;-72
2022/11/10 12:19:05;;;;;;;18.10;1.73;;;;;;;15.57;68.77;102347.44;5058581;28;20040;-72
2022/11/10 12:22:07;;;;;;;8.75;1.73;;;;;;;15.58;68.11;102351.84;5052750;28;20144;-71
2022/11/10 12:25:12;;;;;;;9.27;1.80;;;;;;;15.61;68.89;102354.44;5048188;28;20041;-72
2022/11/10 12:28:16;;;;;;;8.07;1.27;;;;;;;15.69;68.63;102343.59;5050836;28;20172;-72
2022/11/10 12:31:09;;;;;;;18.50;1.95;;;;;;;15.71;66.55;102336.44;5053527;28;20071;-72
2022/11/10 12:34:08;;;;;;;13.27;1.70;;;;;;;15.71;67.64;102347.09;5052630;28;20117;-72
2022/11/10 12:36:53;;;;;;;12.88;2.10;;;;;;;15.71;67.23;102351.50;5032825;28;20439;-72
2022/11/10 12:39:55;;;;;;;12.43;2.05;;;;;;;15.74;67.79;102336.34;5052523;28;20049;-72
2022/11/10 12:42:45;;;;;;;11.57;1.73;;;;;;;15.79;67.07;102338.88;5060042;28;20049;-72
2022/11/10 12:45:42;;;;;;;6.82;1.45;;;;;;;15.86;66.95;102345.81;5052060;28;20132;-72
2022/11/10 12:48:54;;;;;;;8.65;1.70;;;;;;;15.90;66.70;102342.13;5052372;28;20052;-72
2022/11/10 12:52:14;;;;;;;13.68;1.70;;;;;;;15.99;65.57;102346.31;5050839;28;20045;-71
2022/11/10 12:55:00;;;;;;;7.03;1.75;;;;;;;16.02;65.33;102348.00;5052482;28;20053;-72
2022/11/10 12:57:47;;;;;;;11.32;1.77;;;;;;;16.02;65.67;102345.34;5052014;28;20045;-72
2022/11/10 13:00:57;;;;;;;10.68;2.17;;;;;;;16.04;66.03;102352.34;5052353;28;20041;-71
2022/11/10 13:03:59;;;;;;;14.02;2.03;;;;;;;15.96;65.66;102349.94;5052056;28;20535;-71
2022/11/10 13:06:54;;;;;;;7.50;1.23;;;;;;;15.95;65.83;102363.28;5051696;28;20099;-72
2022/11/10 13:09:43;;;;;;;9.23;1.60;;;;;;;15.98;65.88;102369.38;5060014;28;20048;-72
2022/11/10 13:12:29;;;;;;;9.82;2.05;;;;;;;16.02;65.67;102358.66;5056297;28;20049;-70
2022/11/10 13:15:36;;;;;;;14.55;1.70;;;;;;;16.02;64.98;102367.53;5051978;28;20048;-72
2022/11/10 13:18:27;;;;;;;24.90;2.22;;;;;;;15.97;65.31;102362.31;5051671;28;20064;-72
2022/11/10 13:21:14;;;;;;;23.88;2.10;;;;;;;15.98;65.45;102379.16;5049185;28;20115;-69
2022/11/10 13:24:01;;;;;;;19.10;2.08;;;;;;;15.98;64.63;102369.38;5048966;28;20042;-71
2022/11/10 13:27:20;;;;;;;17.35;2.40;;;;;;;15.99;63.83;102362.28;5049830;28;20045;-71